sensor_id;sensor_type;location;lat;lon;timestamp;pressure;altitude;pressure_sealevel;temperature;humidity
45941;BME280;31858;46.008;8.978;2023-04-27T00:05:28;94402.69;;;11.26;55.88
45941;BME280;31858;46.008;8.978;2023-04-27T00:15:32;94406.50;;;11.25;58.29
45941;BME280;31858;46.008;8.978;2023-04-27T00:25:34;94398.47;;;11.10;59.63
45941;BME280;31858;46.008;8.978;2023-04-27T00:35:37;94389.69;;;11.14;62.65
45941;BME280;31858;46.008;8.978;2023-04-27T00:45:41;94384.72;;;11.08;64.01
45941;BME280;31858;46.008;8.978;2023-04-27T00:55:45;94378.22;;;10.92;63.94
45941;BME280;31858;46.008;8.978;2023-04-27T01:05:47;94385.50;;;11.09;64.88
45941;BME280;31858;46.008;8.978;2023-04-27T01:15:50;94380.13;;;10.95;61.85
45941;BME280;31858;46.008;8.978;2023-04-27T01:25:53;94388.09;;;10.88;63.17
45941;BME280;31858;46.008;8.978;2023-04-27T01:35:55;94390.69;;;10.70;63.35
45941;BME280;31858;46.008;8.978;2023-04-27T01:46:05;94390.31;;;10.68;61.95
45941;BME280;31858;46.008;8.978;2023-04-27T01:56:07;94399.44;;;10.67;62.80
45941;BME280;31858;46.008;8.978;2023-04-27T02:06:10;94406.63;;;10.59;60.63
45941;BME280;31858;46.008;8.978;2023-04-27T02:16:12;94425.97;;;10.45;64.49
45941;BME280;31858;46.008;8.978;2023-04-27T02:26:19;94426.38;;;10.51;62.43
45941;BME280;31858;46.008;8.978;2023-04-27T02:36:21;94438.50;;;10.41;69.26
45941;BME280;31858;46.008;8.978;2023-04-27T02:46:24;94435.09;;;10.41;70.78
45941;BME280;31858;46.008;8.978;2023-04-27T02:56:26;94431.56;;;10.23;76.66
45941;BME280;31858;46.008;8.978;2023-04-27T03:06:29;94427.28;;;10.11;74.83
45941;BME280;31858;46.008;8.978;2023-04-27T03:16:31;94429.84;;;9.97;79.28
45941;BME280;31858;46.008;8.978;2023-04-27T03:26:34;94431.44;;;10.08;77.18
45941;BME280;31858;46.008;8.978;2023-04-27T03:36:35;94431.19;;;10.21;75.40
45941;BME280;31858;46.008;8.978;2023-04-27T03:46:38;94442.53;;;10.14;81.20
45941;BME280;31858;46.008;8.978;2023-04-27T03:56:40;94436.22;;;9.85;88.34
45941;BME280;31858;46.008;8.978;2023-04-27T04:06:43;94439.94;;;9.77;96.91
45941;BME280;31858;46.008;8.978;2023-04-27T04:16:44;94450.97;;;9.75;97.75
45941;BME280;31858;46.008;8.978;2023-04-27T04:26:47;94470.31;;;9.72;100.00
45941;BME280;31858;46.008;8.978;2023-04-27T04:36:49;94478.56;;;9.60;100.00
45941;BME280;31858;46.008;8.978;2023-04-27T04:46:52;94493.00;;;9.59;100.00
45941;BME280;31858;46.008;8.978;2023-04-27T04:56:54;94494.50;;;9.57;100.00
45941;BME280;31858;46.008;8.978;2023-04-27T05:06:59;94502.41;;;9.49;100.00
45941;BME280;31858;46.008;8.978;2023-04-27T05:17:01;94510.34;;;9.46;100.00
45941;BME280;31858;46.008;8.978;2023-04-27T05:27:03;94511.06;;;9.43;100.00
45941;BME280;31858;46.008;8.978;2023-04-27T05:37:05;94515.72;;;9.53;100.00
45941;BME280;31858;46.008;8.978;2023-04-27T05:47:08;94517.66;;;9.56;100.00
45941;BME280;31858;46.008;8.978;2023-04-27T05:57:10;94521.84;;;9.57;100.00
45941;BME280;31858;46.008;8.978;2023-04-27T06:07:14;94543.38;;;9.45;100.00
45941;BME280;31858;46.008;8.978;2023-04-27T06:17:15;94540.19;;;9.66;100.00
45941;BME280;31858;46.008;8.978;2023-04-27T06:27:18;94554.91;;;9.56;100.00
45941;BME280;31858;46.008;8.978;2023-04-27T06:37:20;94549.38;;;9.72;100.00
45941;BME280;31858;46.008;8.978;2023-04-27T06:47:23;94569.22;;;9.81;100.00
45941;BME280;31858;46.008;8.978;2023-04-27T06:57:24;94585.13;;;9.74;94.28
45941;BME280;31858;46.008;8.978;2023-04-27T07:07:28;94588.94;;;9.77;100.00
45941;BME280;31858;46.008;8.978;2023-04-27T07:17:30;94593.16;;;9.78;100.00
45941;BME280;31858;46.008;8.978;2023-04-27T07:27:33;94599.63;;;9.80;100.00
45941;BME280;31858;46.008;8.978;2023-04-27T07:37:34;94593.19;;;9.81;100.00
45941;BME280;31858;46.008;8.978;2023-04-27T07:47:37;94603.44;;;9.79;100.00
45941;BME280;31858;46.008;8.978;2023-04-27T07:57:39;94609.75;;;10.01;100.00
45941;BME280;31858;46.008;8.978;2023-04-27T08:07:42;94603.97;;;10.29;100.00
45941;BME280;31858;46.008;8.978;2023-04-27T08:17:43;94604.59;;;10.19;100.00
45941;BME280;31858;46.008;8.978;2023-04-27T08:27:47;94597.94;;;10.36;100.00
45941;BME280;31858;46.008;8.978;2023-04-27T08:37:49;94608.88;;;10.75;100.00
45941;BME280;31858;46.008;8.978;2023-04-27T08:47:52;94594.25;;;11.09;100.00
45941;BME280;31858;46.008;8.978;2023-04-27T08:57:55;94593.63;;;11.37;100.00
45941;BME280;31858;46.008;8.978;2023-04-27T09:08:00;94602.50;;;11.63;100.00
45941;BME280;31858;46.008;8.978;2023-04-27T09:18:04;94597.66;;;11.97;100.00
45941;BME280;31858;46.008;8.978;2023-04-27T09:28:07;94592.00;;;12.30;100.00
45941;BME280;31858;46.008;8.978;2023-04-27T09:38:09;94600.03;;;12.73;100.00
45941;BME280;31858;46.008;8.978;2023-04-27T09:48:12;94605.00;;;12.99;100.00
45941;BME280;31858;46.008;8.978;2023-04-27T09:58:29;94584.28;;;13.32;96.42
45941;BME280;31858;46.008;8.978;2023-04-27T10:08:38;94586.50;;;13.58;87.53
45941;BME280;31858;46.008;8.978;2023-04-27T10:18:50;94570.66;;;13.92;99.01
45941;BME280;31858;46.008;8.978;2023-04-27T10:28:57;94579.25;;;14.25;91.41
45941;BME280;31858;46.008;8.978;2023-04-27T10:38:59;94585.28;;;14.36;85.91
45941;BME280;31858;46.008;8.978;2023-04-27T10:49:04;94588.34;;;14.42;82.15
45941;BME280;31858;46.008;8.978;2023-04-27T10:59:06;94575.25;;;14.51;81.35
45941;BME280;31858;46.008;8.978;2023-04-27T11:09:09;94580.13;;;14.63;82.28
45941;BME280;31858;46.008;8.978;2023-04-27T11:19:11;94586.44;;;14.90;86.83
45941;BME280;31858;46.008;8.978;2023-04-27T11:29:14;94569.13;;;14.95;76.08
45941;BME280;31858;46.008;8.978;2023-04-27T11:39:16;94570.59;;;15.41;87.09
45941;BME280;31858;46.008;8.978;2023-04-27T11:49:20;94561.97;;;15.56;74.11
45941;BME280;31858;46.008;8.978;2023-04-27T11:59:21;94560.50;;;15.52;62.41
45941;BME280;31858;46.008;8.978;2023-04-27T12:09:25;94541.06;;;15.71;73.42
45941;BME280;31858;46.008;8.978;2023-04-27T12:19:28;94539.19;;;15.98;64.79
45941;BME280;31858;46.008;8.978;2023-04-27T12:29:31;94527.59;;;16.28;62.28
45941;BME280;31858;46.008;8.978;2023-04-27T12:39:33;94526.66;;;16.66;63.89
45941;BME280;31858;46.008;8.978;2023-04-27T12:49:36;94525.16;;;16.65;55.75
45941;BME280;31858;46.008;8.978;2023-04-27T12:59:38;94525.97;;;16.85;59.45
45941;BME280;31858;46.008;8.978;2023-04-27T13:09:42;94517.50;;;16.59;57.98
45941;BME280;31858;46.008;8.978;2023-04-27T13:19:43;94515.03;;;16.72;58.13
45941;BME280;31858;46.008;8.978;2023-04-27T13:29:46;94506.06;;;16.99;62.19
45941;BME280;31858;46.008;8.978;2023-04-27T13:39:50;94497.94;;;17.22;60.54
45941;BME280;31858;46.008;8.978;2023-04-27T13:49:53;94496.28;;;17.68;59.40
45941;BME280;31858;46.008;8.978;2023-04-27T13:59:55;94490.72;;;17.95;58.49
45941;BME280;31858;46.008;8.978;2023-04-27T14:09:58;94492.38;;;17.88;55.83
45941;BME280;31858;46.008;8.978;2023-04-27T14:20:00;94486.25;;;18.04;53.44
45941;BME280;31858;46.008;8.978;2023-04-27T14:30:04;94490.25;;;17.80;53.52
45941;BME280;31858;46.008;8.978;2023-04-27T14:40:08;94483.13;;;17.89;57.37
45941;BME280;31858;46.008;8.978;2023-04-27T14:50:11;94491.63;;;18.20;59.47
45941;BME280;31858;46.008;8.978;2023-04-27T15:00:13;94486.78;;;18.15;56.64
45941;BME280;31858;46.008;8.978;2023-04-27T15:10:16;94484.91;;;17.96;56.77
45941;BME280;31858;46.008;8.978;2023-04-27T15:20:18;94491.81;;;18.30;56.38
45941;BME280;31858;46.008;8.978;2023-04-27T15:30:21;94496.09;;;18.27;53.97
45941;BME280;31858;46.008;8.978;2023-04-27T15:40:23;94501.50;;;18.43;53.71
45941;BME280;31858;46.008;8.978;2023-04-27T15:50:26;94501.66;;;18.36;54.64
45941;BME280;31858;46.008;8.978;2023-04-27T16:00:28;94508.84;;;18.43;52.74
45941;BME280;31858;46.008;8.978;2023-04-27T16:10:31;94508.00;;;18.30;54.42
45941;BME280;31858;46.008;8.978;2023-04-27T16:20:33;94508.16;;;18.22;52.72
45941;BME280;31858;46.008;8.978;2023-04-27T16:30:37;94508.13;;;17.90;51.98
45941;BME280;31858;46.008;8.978;2023-04-27T16:40:38;94514.38;;;17.87;52.26
45941;BME280;31858;46.008;8.978;2023-04-27T16:50:41;94509.47;;;17.62;51.65
45941;BME280;31858;46.008;8.978;2023-04-27T17:00:43;94512.94;;;17.43;54.90
45941;BME280;31858;46.008;8.978;2023-04-27T17:10:46;94517.28;;;17.17;54.08
45941;BME280;31858;46.008;8.978;2023-04-27T17:20:48;94518.78;;;16.98;52.57
45941;BME280;31858;46.008;8.978;2023-04-27T17:30:50;94512.63;;;16.78;52.25
45941;BME280;31858;46.008;8.978;2023-04-27T17:40:52;94518.28;;;16.60;52.82
45941;BME280;31858;46.008;8.978;2023-04-27T17:50:55;94531.75;;;16.33;53.48
45941;BME280;31858;46.008;8.978;2023-04-27T18:00:57;94540.19;;;16.08;53.14
45941;BME280;31858;46.008;8.978;2023-04-27T18:11:00;94565.97;;;15.75;56.40
45941;BME280;31858;46.008;8.978;2023-04-27T18:21:01;94567.72;;;15.58;57.67
45941;BME280;31858;46.008;8.978;2023-04-27T18:31:12;94578.09;;;15.56;57.48
45941;BME280;31858;46.008;8.978;2023-04-27T18:41:13;94582.88;;;15.38;59.99
45941;BME280;31858;46.008;8.978;2023-04-27T18:51:16;94608.88;;;15.48;57.61
45941;BME280;31858;46.008;8.978;2023-04-27T19:01:19;94617.97;;;15.20;60.59
45941;BME280;31858;46.008;8.978;2023-04-27T19:11:22;94623.84;;;15.08;62.88
45941;BME280;31858;46.008;8.978;2023-04-27T19:21:24;94639.47;;;15.17;62.53
45941;BME280;31858;46.008;8.978;2023-04-27T19:31:28;94657.09;;;15.18;65.94
45941;BME280;31858;46.008;8.978;2023-04-27T19:41:30;94669.13;;;14.99;65.63
45941;BME280;31858;46.008;8.978;2023-04-27T19:51:33;94676.56;;;14.81;69.57
45941;BME280;31858;46.008;8.978;2023-04-27T20:01:35;94688.63;;;14.51;74.66
45941;BME280;31858;46.008;8.978;2023-04-27T20:11:38;94693.41;;;14.12;83.04
45941;BME280;31858;46.008;8.978;2023-04-27T20:21:40;94698.06;;;13.97;80.96
45941;BME280;31858;46.008;8.978;2023-04-27T20:31:43;94695.81;;;13.85;82.52
45941;BME280;31858;46.008;8.978;2023-04-27T20:41:45;94701.97;;;13.71;82.80
45941;BME280;31858;46.008;8.978;2023-04-27T20:51:48;94702.38;;;13.59;83.79
45941;BME280;31858;46.008;8.978;2023-04-27T21:01:49;94702.38;;;13.55;89.17
45941;BME280;31858;46.008;8.978;2023-04-27T21:11:52;94699.34;;;13.46;87.72
45941;BME280;31858;46.008;8.978;2023-04-27T21:21:54;94711.97;;;13.35;88.44
45941;BME280;31858;46.008;8.978;2023-04-27T21:31:57;94709.28;;;13.28;97.35
45941;BME280;31858;46.008;8.978;2023-04-27T21:41:58;94721.16;;;13.20;100.00
45941;BME280;31858;46.008;8.978;2023-04-27T21:52:01;94716.19;;;13.18;100.00
45941;BME280;31858;46.008;8.978;2023-04-27T22:02:03;94718.06;;;13.14;100.00
45941;BME280;31858;46.008;8.978;2023-04-27T22:12:07;94725.69;;;13.05;100.00
45941;BME280;31858;46.008;8.978;2023-04-27T22:22:08;94737.16;;;13.09;100.00
45941;BME280;31858;46.008;8.978;2023-04-27T22:32:11;94740.22;;;13.15;100.00
45941;BME280;31858;46.008;8.978;2023-04-27T22:42:13;94742.53;;;12.95;100.00
45941;BME280;31858;46.008;8.978;2023-04-27T22:52:16;94737.94;;;12.88;100.00
45941;BME280;31858;46.008;8.978;2023-04-27T23:02:18;94735.66;;;12.90;100.00
45941;BME280;31858;46.008;8.978;2023-04-27T23:12:21;94741.38;;;12.82;100.00
45941;BME280;31858;46.008;8.978;2023-04-27T23:22:26;94742.88;;;12.65;100.00
45941;BME280;31858;46.008;8.978;2023-04-27T23:32:29;94753.53;;;12.58;100.00
45941;BME280;31858;46.008;8.978;2023-04-27T23:42:31;94758.50;;;12.63;100.00
45941;BME280;31858;46.008;8.978;2023-04-27T23:52:34;94739.81;;;12.66;100.00
